Time;durP1;ratioP1;P1;durP2;ratioP2;P2;SDS_P1;SDS_P2;PMS_P1;PMS_P2;Temp;Humidity;BMP_temperature;BMP_pressure;BME280_temperature;BME280_humidity;BME280_pressure;Samples;Min_cycle;Max_cycle;Signal;HPM_P1;HPM_P2
2023/01/27 00:01:01;;;;;;;495.30;122.60;;;2.70;99.90;;;;;;5072067;28;20222;-53
2023/01/27 00:03:29;;;;;;;641.23;172.80;;;2.80;99.90;;;;;;5072100;28;20295;-53
2023/01/27 00:05:59;;;;;;;614.57;142.73;;;2.70;99.90;;;;;;5067518;28;20239;-53
2023/01/27 00:08:28;;;;;;;1093.07;191.80;;;2.80;99.90;;;;;;5051943;28;20620;-53
2023/01/27 00:13:41;;;;;;;1247.70;256.30;;;2.80;99.90;;;;;;5071349;28;20308;-51
2023/01/27 00:16:09;;;;;;;664.80;168.07;;;2.80;99.90;;;;;;5071919;28;20215;-51
2023/01/27 00:18:37;;;;;;;51.10;41.67;;;2.70;99.90;;;;;;5064752;28;20254;-51
2023/01/27 00:26:38;;;;;;;366.00;94.37;;;2.80;99.90;;;;;;5070953;28;20206;-52
2023/01/27 00:29:06;;;;;;;81.13;72.90;;;2.80;99.90;;;;;;5051213;28;20211;-50
2023/01/27 00:34:20;;;;;;;870.30;179.03;;;2.70;99.90;;;;;;5071742;28;20214;-51
2023/01/27 00:36:47;;;;;;;1999.90;542.63;;;2.60;99.90;;;;;;5056673;28;20303;-51
2023/01/27 00:39:16;;;;;;;664.70;161.57;;;2.60;99.90;;;;;;5070923;28;20234;-50
2023/01/27 00:41:45;;;;;;;1020.90;238.57;;;2.60;99.90;;;;;;5071536;28;20333;-52
2023/01/27 00:44:13;;;;;;;99.83;64.60;;;2.60;99.90;;;;;;5045310;28;20262;-53
2023/01/27 00:46:42;;;;;;;102.43;87.53;;;2.60;99.90;;;;;;5071367;28;20853;-50
2023/01/27 00:49:12;;;;;;;580.07;179.20;;;2.60;99.90;;;;;;5071373;28;20213;-52
2023/01/27 00:51:40;;;;;;;42.77;38.67;;;2.70;99.90;;;;;;5069827;28;20229;-51
2023/01/27 00:54:08;;;;;;;1999.90;741.93;;;2.70;99.90;;;;;;5066653;28;20224;-52
2023/01/27 00:56:37;;;;;;;167.03;91.17;;;2.50;99.90;;;;;;5071331;28;20320;-51
2023/01/27 00:59:06;;;;;;;340.87;113.00;;;2.50;99.90;;;;;;5071254;28;20647;-51
2023/01/27 01:01:34;;;;;;;1999.90;449.23;;;2.60;99.90;;;;;;5061971;28;20312;-53
2023/01/27 01:04:02;;;;;;;86.60;58.50;;;2.50;99.90;;;;;;5070682;28;20210;-53
2023/01/27 01:06:30;;;;;;;54.43;45.50;;;2.50;99.90;;;;;;5071390;28;20331;-53
2023/01/27 01:08:59;;;;;;;537.47;113.70;;;2.60;99.90;;;;;;5070588;28;20210;-55
2023/01/27 01:11:27;;;;;;;1296.17;259.90;;;2.60;99.90;;;;;;5070983;28;20321;-52
2023/01/27 01:13:55;;;;;;;142.07;77.97;;;2.60;99.90;;;;;;5046739;28;20240;-54
2023/01/27 01:16:25;;;;;;;779.93;134.13;;;2.60;99.90;;;;;;5069408;28;20816;-53
2023/01/27 01:18:54;;;;;;;304.87;100.47;;;2.60;99.90;;;;;;5070876;28;20231;-52
2023/01/27 01:21:22;;;;;;;468.93;105.97;;;2.60;99.90;;;;;;5070455;28;20312;-53
2023/01/27 01:23:50;;;;;;;1672.30;264.37;;;2.60;99.90;;;;;;5070525;28;20208;-53
2023/01/27 01:26:18;;;;;;;866.67;180.97;;;2.60;99.90;;;;;;5054387;28;20213;-52
2023/01/27 01:28:47;;;;;;;1111.03;207.40;;;2.60;99.90;;;;;;5065304;28;20290;-52
2023/01/27 01:31:17;;;;;;;446.47;137.70;;;2.60;99.90;;;;;;5061999;28;20232;-52
2023/01/27 01:33:47;;;;;;;93.80;56.73;;;2.60;99.90;;;;;;5066325;28;20234;-51
2023/01/27 01:36:18;;;;;;;69.57;50.83;;;2.60;99.90;;;;;;5061604;28;20241;-52
2023/01/27 01:38:46;;;;;;;160.13;75.03;;;2.60;99.90;;;;;;5070180;28;20644;-50
2023/01/27 01:41:16;;;;;;;1692.03;320.90;;;2.60;99.90;;;;;;5070118;28;20355;-50
2023/01/27 01:43:44;;;;;;;1999.90;447.00;;;2.60;99.90;;;;;;5068909;28;20640;-51
2023/01/27 01:46:13;;;;;;;945.80;249.97;;;2.60;99.90;;;;;;5064419;28;20652;-51
2023/01/27 01:48:43;;;;;;;921.17;255.00;;;2.60;99.90;;;;;;5060309;28;20238;-51
2023/01/27 01:51:17;;;;;;;261.47;90.03;;;2.60;99.90;;;;;;5070180;28;20275;-53
2023/01/27 01:53:51;;;;;;;1550.07;290.13;;;2.60;99.90;;;;;;5069225;28;20850;-51
2023/01/27 01:56:23;;;;;;;1241.13;252.90;;;2.60;99.90;;;;;;5070126;28;20210;-51
2023/01/27 01:58:53;;;;;;;738.27;180.43;;;2.60;99.90;;;;;;5069757;28;20292;-51
2023/01/27 02:01:21;;;;;;;97.20;77.10;;;2.60;99.90;;;;;;5069831;28;20309;-51
2023/01/27 02:03:54;;;;;;;102.23;70.23;;;2.60;99.90;;;;;;5069651;28;20205;-52
2023/01/27 02:06:24;;;;;;;1999.90;372.80;;;2.60;99.90;;;;;;5069951;28;20296;-51
2023/01/27 02:08:52;;;;;;;156.93;69.97;;;2.50;99.90;;;;;;5064698;28;20207;-52
2023/01/27 02:11:20;;;;;;;73.23;30.17;;;2.50;99.90;;;;;;5069788;28;20232;-52
2023/01/27 02:13:48;;;;;;;400.57;99.43;;;2.60;99.90;;;;;;5069348;28;20234;-51
2023/01/27 02:16:16;;;;;;;636.17;136.57;;;2.60;99.90;;;;;;5063059;28;20212;-52
2023/01/27 02:18:44;;;;;;;452.77;90.27;;;2.60;99.90;;;;;;5069055;28;20209;-51
2023/01/27 02:21:12;;;;;;;1976.87;348.23;;;2.60;99.90;;;;;;5055841;28;21064;-51
2023/01/27 02:23:49;;;;;;;1439.30;306.20;;;2.60;99.90;;;;;;5069413;28;20213;-51
2023/01/27 02:26:22;;;;;;;911.63;242.10;;;2.60;99.90;;;;;;5069597;28;20214;-51
2023/01/27 02:28:56;;;;;;;695.93;172.03;;;2.60;99.90;;;;;;5063017;28;20218;-51
2023/01/27 02:31:24;;;;;;;1841.87;400.40;;;2.60;99.90;;;;;;5062278;28;20317;-51
2023/01/27 02:33:58;;;;;;;176.77;58.30;;;2.60;99.90;;;;;;5045042;28;20227;-50
2023/01/27 02:36:27;;;;;;;679.97;190.87;;;2.60;99.90;;;;;;5069450;28;20211;-51
2023/01/27 02:38:58;;;;;;;1999.90;999.90;;;2.60;99.90;;;;;;5069397;28;20201;-51
2023/01/27 02:41:31;;;;;;;610.03;147.73;;;2.70;99.90;;;;;;5047834;28;20227;-51
2023/01/27 02:43:59;;;;;;;1057.77;236.57;;;2.70;99.90;;;;;;5065665;28;20719;-51
2023/01/27 02:46:27;;;;;;;60.33;47.67;;;2.60;99.90;;;;;;5061918;28;20283;-50
2023/01/27 02:48:56;;;;;;;1061.00;189.00;;;2.60;99.90;;;;;;5069329;28;20308;-52
2023/01/27 02:51:24;;;;;;;220.80;104.00;;;2.60;99.90;;;;;;5069187;28;20313;-50
2023/01/27 02:53:53;;;;;;;1999.90;518.90;;;2.60;99.90;;;;;;5052402;28;20311;-51
2023/01/27 02:56:21;;;;;;;136.60;59.07;;;2.50;99.90;;;;;;5069301;28;20233;-51
2023/01/27 02:58:50;;;;;;;1829.97;331.63;;;2.60;99.90;;;;;;5065305;28;20836;-51
2023/01/27 03:01:18;;;;;;;75.57;56.77;;;2.50;99.90;;;;;;5068889;28;20726;-52
2023/01/27 03:03:46;;;;;;;1288.60;211.50;;;2.50;99.90;;;;;;5068914;28;20209;-52
2023/01/27 03:06:15;;;;;;;235.60;118.13;;;2.60;99.90;;;;;;5062551;28;20215;-50
2023/01/27 03:08:43;;;;;;;1780.67;296.53;;;2.60;99.90;;;;;;5065144;28;20298;-50
2023/01/27 03:11:12;;;;;;;1999.90;622.33;;;2.60;99.90;;;;;;5063644;28;20314;-53
2023/01/27 03:13:39;;;;;;;1250.43;241.73;;;2.70;99.90;;;;;;5068750;28;20336;-51
2023/01/27 03:18:57;;;;;;;382.37;115.50;;;2.60;99.90;;;;;;5056091;28;20286;-51
2023/01/27 03:21:25;;;;;;;449.27;175.37;;;2.60;99.90;;;;;;5067359;28;20249;-51
2023/01/27 03:23:53;;;;;;;1999.90;593.80;;;2.60;99.90;;;;;;5068606;28;20287;-51
2023/01/27 03:26:21;;;;;;;653.83;139.40;;;2.50;99.90;;;;;;5065439;28;20864;-51
2023/01/27 03:29:53;;;;;;;506.60;131.80;;;2.60;99.90;;;;;;5058186;28;20296;-52
2023/01/27 03:31:38;;;;;;;324.73;81.73;;;2.60;99.90;;;;;;5055403;28;20255;-52
2023/01/27 03:34:06;;;;;;;1443.50;262.83;;;2.60;99.90;;;;;;5072929;28;20233;-52
2023/01/27 03:47:38;;;;;;;1973.17;343.73;;;2.60;99.90;;;;;;5066589;28;20249;-52
2023/01/27 03:50:17;;;;;;;292.67;129.73;;;2.60;99.90;;;;;;5066752;28;20291;-52
2023/01/27 03:53:01;;;;;;;375.40;84.90;;;2.60;99.90;;;;;;5061589;28;20227;-52
2023/01/27 03:55:30;;;;;;;1250.73;286.63;;;2.60;99.90;;;;;;5069015;28;20258;-52
2023/01/27 03:58:13;;;;;;;582.63;172.93;;;2.60;99.90;;;;;;5053473;28;20240;-52
2023/01/27 04:00:41;;;;;;;61.97;52.07;;;2.60;99.90;;;;;;5072200;28;20210;-52
2023/01/27 04:08:43;;;;;;;73.90;54.30;;;2.70;99.90;;;;;;5072206;28;20652;-51
2023/01/27 04:14:01;;;;;;;308.80;75.80;;;2.50;99.90;;;;;;5057294;28;20325;-51
2023/01/27 04:16:30;;;;;;;352.70;117.43;;;2.60;99.90;;;;;;5071892;28;20213;-52
2023/01/27 04:18:59;;;;;;;651.30;162.00;;;2.60;99.90;;;;;;5057576;28;20216;-52
2023/01/27 04:21:27;;;;;;;1031.43;227.50;;;2.60;99.90;;;;;;5067036;28;20817;-51
2023/01/27 04:23:55;;;;;;;1909.90;460.33;;;2.60;99.90;;;;;;5071797;28;20311;-51
2023/01/27 04:26:24;;;;;;;1999.90;702.87;;;2.60;99.90;;;;;;5061226;28;20908;-51
2023/01/27 04:28:52;;;;;;;1999.90;426.30;;;2.60;99.90;;;;;;5071834;28;20298;-52
2023/01/27 04:31:20;;;;;;;1999.90;768.70;;;2.60;99.90;;;;;;5071232;28;20731;-52
2023/01/27 04:33:48;;;;;;;1999.90;537.17;;;2.60;99.90;;;;;;5071179;28;20231;-52
2023/01/27 04:36:17;;;;;;;1611.60;291.97;;;2.60;99.90;;;;;;5067039;28;20256;-51
2023/01/27 04:38:45;;;;;;;1999.90;390.50;;;2.60;99.90;;;;;;5060011;28;20650;-51
2023/01/27 04:41:13;;;;;;;665.23;127.00;;;2.60;99.90;;;;;;5059160;28;20235;-53
2023/01/27 04:43:41;;;;;;;1999.90;587.93;;;2.60;99.90;;;;;;5050728;28;20299;-52
2023/01/27 04:46:09;;;;;;;997.00;202.60;;;2.60;99.90;;;;;;5051553;28;20209;-52
2023/01/27 04:48:37;;;;;;;1999.90;637.10;;;2.60;99.90;;;;;;5051686;28;20275;-52
2023/01/27 04:51:05;;;;;;;506.33;137.43;;;2.60;99.90;;;;;;5050993;28;20745;-51
2023/01/27 04:53:35;;;;;;;252.40;86.30;;;2.60;99.90;;;;;;5050838;28;20211;-52
2023/01/27 04:56:05;;;;;;;116.70;78.40;;;2.60;99.90;;;;;;5050897;28;20788;-52
2023/01/27 04:58:34;;;;;;;153.00;51.27;;;2.60;99.90;;;;;;5051421;28;20294;-50
2023/01/27 05:01:02;;;;;;;1969.20;590.27;;;2.70;99.90;;;;;;5051202;28;20253;-52
2023/01/27 05:03:29;;;;;;;486.53;143.57;;;2.70;99.90;;;;;;5050001;28;20206;-52
2023/01/27 05:05:57;;;;;;;73.73;59.27;;;2.60;99.90;;;;;;5051321;28;20290;-52
2023/01/27 05:08:25;;;;;;;1554.47;285.17;;;2.60;99.90;;;;;;5050919;28;20295;-51
2023/01/27 05:10:55;;;;;;;228.43;89.10;;;2.60;99.90;;;;;;5050655;28;20217;-50
2023/01/27 05:13:23;;;;;;;1892.73;312.47;;;2.70;99.90;;;;;;5050766;28;20210;-51
2023/01/27 05:15:51;;;;;;;369.73;124.03;;;2.60;99.90;;;;;;5050814;28;20222;-51
2023/01/27 05:18:19;;;;;;;114.67;70.67;;;2.60;99.90;;;;;;5050738;28;20226;-51
2023/01/27 05:20:47;;;;;;;1034.23;184.77;;;2.70;99.90;;;;;;5038269;28;20215;-50
2023/01/27 05:26:09;;;;;;;162.37;71.43;;;2.60;99.90;;;;;;5050571;28;20209;-52
2023/01/27 05:28:39;;;;;;;441.77;129.97;;;2.60;99.90;;;;;;5038528;28;20220;-51
2023/01/27 05:31:09;;;;;;;996.23;159.20;;;2.70;99.90;;;;;;5049575;28;20228;-51
2023/01/27 05:33:38;;;;;;;655.93;133.27;;;2.60;99.90;;;;;;5050161;28;20674;-52
2023/01/27 05:36:08;;;;;;;1999.90;391.40;;;2.60;99.90;;;;;;5050466;28;20226;-52
2023/01/27 05:38:36;;;;;;;690.70;140.30;;;2.50;99.90;;;;;;5050333;28;20245;-51
2023/01/27 05:41:08;;;;;;;1999.90;692.63;;;2.60;99.90;;;;;;5050444;28;20319;-51
2023/01/27 05:43:37;;;;;;;376.27;90.70;;;2.50;99.90;;;;;;5050411;28;20257;-51
2023/01/27 05:46:07;;;;;;;518.97;136.43;;;2.60;99.90;;;;;;5050073;28;20317;-50
2023/01/27 05:48:36;;;;;;;1480.30;236.30;;;2.50;99.90;;;;;;5050162;28;20201;-51
2023/01/27 05:51:05;;;;;;;1155.67;272.43;;;2.50;99.90;;;;;;5050108;28;20261;-51
2023/01/27 05:53:33;;;;;;;68.83;33.03;;;2.60;99.90;;;;;;5045133;28;20294;-51
2023/01/27 05:56:02;;;;;;;1999.90;404.17;;;2.60;99.90;;;;;;5049826;28;21003;-52
2023/01/27 05:58:32;;;;;;;785.53;162.50;;;2.60;99.90;;;;;;5037863;28;20297;-51
2023/01/27 06:01:07;;;;;;;1449.40;261.37;;;2.60;99.90;;;;;;5046034;28;20317;-52
2023/01/27 06:03:35;;;;;;;740.67;193.30;;;2.60;99.90;;;;;;5049248;28;20231;-52
2023/01/27 06:06:03;;;;;;;1881.03;346.17;;;2.60;99.90;;;;;;5038976;28;20240;-52
2023/01/27 06:08:31;;;;;;;513.60;115.77;;;2.60;99.90;;;;;;5048199;28;20287;-52
2023/01/27 06:11:00;;;;;;;202.60;85.77;;;2.60;99.90;;;;;;5049593;28;20320;-52
2023/01/27 06:13:28;;;;;;;1167.10;230.10;;;2.60;99.90;;;;;;5049567;28;20316;-51
2023/01/27 06:15:58;;;;;;;231.03;121.67;;;2.60;99.90;;;;;;5049537;28;20812;-52
2023/01/27 06:18:25;;;;;;;172.90;94.77;;;2.70;99.90;;;;;;5049891;28;20297;-52
2023/01/27 06:20:57;;;;;;;608.30;154.37;;;2.70;99.90;;;;;;5049720;28;20634;-51
2023/01/27 06:23:26;;;;;;;669.77;190.63;;;2.80;99.90;;;;;;5049378;28;20713;-50
2023/01/27 06:25:55;;;;;;;1793.20;429.00;;;2.70;99.90;;;;;;5047368;28;20196;-51
2023/01/27 06:28:23;;;;;;;478.93;149.53;;;2.80;99.90;;;;;;5043357;28;20260;-51
2023/01/27 06:31:05;;;;;;;1617.80;309.33;;;2.80;99.90;;;;;;5039348;28;20240;-51
2023/01/27 06:33:33;;;;;;;217.77;84.63;;;2.70;99.90;;;;;;5049029;28;20205;-51
2023/01/27 06:36:02;;;;;;;1850.90;311.93;;;2.80;99.90;;;;;;5049035;28;20229;-51
2023/01/27 06:38:30;;;;;;;1999.90;409.67;;;2.70;99.90;;;;;;5045348;28;20294;-51
2023/01/27 06:40:59;;;;;;;1711.97;343.70;;;2.70;99.90;;;;;;5048466;28;20320;-50
2023/01/27 06:43:27;;;;;;;1999.90;405.13;;;2.70;99.90;;;;;;5048972;28;20206;-51
2023/01/27 06:45:56;;;;;;;912.43;177.83;;;2.70;99.90;;;;;;5049294;28;20293;-51
2023/01/27 06:48:27;;;;;;;1603.37;240.27;;;2.70;99.90;;;;;;5049233;28;20259;-51
2023/01/27 06:50:55;;;;;;;1999.90;499.53;;;2.60;99.90;;;;;;5049310;28;20392;-51
2023/01/27 06:53:24;;;;;;;1999.90;746.67;;;2.60;99.90;;;;;;5048795;28;20209;-51
2023/01/27 06:55:55;;;;;;;1198.97;262.17;;;2.70;99.90;;;;;;5048786;28;20572;-51
2023/01/27 06:58:23;;;;;;;1999.90;589.63;;;2.70;99.90;;;;;;5049029;28;20264;-51
2023/01/27 07:00:52;;;;;;;360.93;111.83;;;2.80;99.90;;;;;;5044658;28;20774;-51
2023/01/27 07:03:20;;;;;;;1638.27;335.53;;;2.80;99.90;;;;;;5048428;28;20206;-51
2023/01/27 07:05:49;;;;;;;1999.90;467.80;;;2.80;99.90;;;;;;5049173;28;20205;-51
2023/01/27 07:08:17;;;;;;;404.70;115.07;;;2.80;99.90;;;;;;5048001;28;20320;-50
2023/01/27 07:10:45;;;;;;;1949.10;372.83;;;2.80;99.90;;;;;;5048946;28;20213;-51
2023/01/27 07:13:14;;;;;;;431.07;106.23;;;2.80;99.90;;;;;;5048640;28;20237;-51
2023/01/27 07:15:42;;;;;;;1999.90;745.80;;;2.80;99.90;;;;;;5048835;28;20307;-51
2023/01/27 07:18:12;;;;;;;387.33;92.30;;;2.90;99.90;;;;;;5048627;28;20237;-51
2023/01/27 07:20:40;;;;;;;1347.43;198.00;;;2.80;99.90;;;;;;5049586;28;20228;-51
2023/01/27 07:23:11;;;;;;;1935.43;323.33;;;2.80;99.90;;;;;;5054746;28;20667;-51
2023/01/27 07:25:40;;;;;;;1738.97;285.33;;;2.70;99.90;;;;;;5049053;28;20210;-51
2023/01/27 07:28:08;;;;;;;1999.90;999.90;;;2.80;99.90;;;;;;5047083;28;20951;-51
2023/01/27 07:30:37;;;;;;;1964.13;277.67;;;2.90;99.90;;;;;;5050114;28;20296;-51
2023/01/27 07:33:06;;;;;;;1431.07;360.10;;;2.80;99.90;;;;;;5050409;28;20881;-51
2023/01/27 07:35:35;;;;;;;862.43;264.23;;;2.80;99.90;;;;;;5057674;28;20210;-51
2023/01/27 07:38:04;;;;;;;1999.90;331.43;;;2.80;99.90;;;;;;5068393;28;20732;-50
2023/01/27 07:40:33;;;;;;;1639.00;278.70;;;2.80;99.90;;;;;;5068611;28;20262;-51
2023/01/27 07:43:02;;;;;;;824.97;267.50;;;2.80;99.90;;;;;;5069213;28;20229;-50
2023/01/27 07:45:30;;;;;;;334.57;72.60;;;2.80;99.90;;;;;;5058952;28;20293;-51
2023/01/27 07:48:01;;;;;;;225.80;78.83;;;2.80;99.90;;;;;;5054492;28;20209;-51
2023/01/27 07:50:29;;;;;;;1999.90;807.00;;;2.80;99.90;;;;;;5068967;28;20712;-51
2023/01/27 07:53:00;;;;;;;162.43;56.60;;;2.90;99.90;;;;;;5068636;28;20219;-51
2023/01/27 07:55:28;;;;;;;260.07;89.83;;;2.90;99.90;;;;;;5069408;28;20253;-51
2023/01/27 07:57:58;;;;;;;1999.90;590.40;;;2.80;99.90;;;;;;5047535;28;20298;-51
2023/01/27 08:00:27;;;;;;;1863.40;363.47;;;2.90;99.90;;;;;;5036642;28;20201;-51
2023/01/27 08:02:56;;;;;;;1045.53;202.63;;;2.90;99.90;;;;;;5043285;28;20845;-51
2023/01/27 08:05:24;;;;;;;1062.10;178.40;;;2.80;99.90;;;;;;5045458;28;20198;-51
2023/01/27 08:07:54;;;;;;;1999.90;409.83;;;2.90;99.90;;;;;;5053108;28;20238;-51
2023/01/27 08:10:25;;;;;;;263.10;95.83;;;2.90;99.90;;;;;;5051500;28;20213;-51
2023/01/27 08:12:53;;;;;;;1999.90;383.17;;;2.90;99.90;;;;;;5048036;28;20224;-51
2023/01/27 08:15:23;;;;;;;1229.77;340.53;;;2.90;99.90;;;;;;5048168;28;20209;-51
2023/01/27 08:17:54;;;;;;;97.60;64.93;;;3.00;99.90;;;;;;5050117;28;20234;-50
2023/01/27 08:20:23;;;;;;;1999.90;396.73;;;3.00;99.90;;;;;;5051814;28;20204;-51
2023/01/27 08:22:51;;;;;;;315.73;110.27;;;3.00;99.90;;;;;;5051142;28;20692;-50
2023/01/27 08:25:20;;;;;;;1999.90;317.07;;;3.00;99.90;;;;;;5048746;28;20293;-50
2023/01/27 08:27:50;;;;;;;1999.90;989.47;;;3.00;99.90;;;;;;5052026;28;20233;-50
2023/01/27 08:30:19;;;;;;;1999.90;553.47;;;3.10;99.90;;;;;;5052039;28;20199;-51
2023/01/27 08:32:48;;;;;;;1946.37;465.27;;;3.10;99.90;;;;;;5051626;28;20219;-50
2023/01/27 08:35:17;;;;;;;1241.00;307.97;;;3.10;99.90;;;;;;5051410;28;20220;-51
2023/01/27 08:37:47;;;;;;;1999.90;799.37;;;3.10;99.90;;;;;;5036840;28;20883;-51
2023/01/27 08:40:15;;;;;;;907.53;198.17;;;3.10;99.90;;;;;;5042837;28;20296;-51
2023/01/27 08:42:43;;;;;;;53.10;40.90;;;3.10;99.90;;;;;;5049716;28;20272;-50
2023/01/27 08:45:11;;;;;;;1556.70;320.13;;;3.10;99.90;;;;;;5051332;28;20209;-51
2023/01/27 08:47:39;;;;;;;1861.13;320.57;;;3.30;99.90;;;;;;5050843;28;20198;-51
2023/01/27 08:50:11;;;;;;;1011.57;201.60;;;3.20;99.90;;;;;;5051442;28;20240;-51
2023/01/27 08:52:39;;;;;;;1999.90;854.30;;;3.10;99.90;;;;;;5045646;28;20298;-50
2023/01/27 08:55:07;;;;;;;1549.50;394.43;;;3.30;99.90;;;;;;5051466;28;20297;-51
2023/01/27 08:57:35;;;;;;;1091.40;197.30;;;3.20;99.90;;;;;;5037732;28;20237;-50
2023/01/27 09:00:05;;;;;;;1999.90;999.90;;;3.20;99.90;;;;;;5051111;28;20202;-51
2023/01/27 09:02:33;;;;;;;84.30;45.03;;;3.50;99.90;;;;;;5050661;28;20229;-50
2023/01/27 09:05:01;;;;;;;1612.93;345.00;;;3.30;99.90;;;;;;5037489;28;20242;-50
2023/01/27 09:07:32;;;;;;;130.73;52.63;;;3.40;99.90;;;;;;5051386;28;20287;-50
2023/01/27 09:10:00;;;;;;;1999.90;970.03;;;3.40;99.90;;;;;;5050822;28;20321;-49
2023/01/27 09:12:43;;;;;;;1999.90;502.30;;;3.50;99.90;;;;;;5049802;28;20358;-51
2023/01/27 09:15:11;;;;;;;745.33;148.33;;;3.40;99.90;;;;;;5050152;28;20832;-51
2023/01/27 09:17:39;;;;;;;840.10;211.27;;;3.50;99.90;;;;;;5044530;28;20308;-51
2023/01/27 09:20:09;;;;;;;1999.90;564.00;;;3.50;99.90;;;;;;5042196;28;20210;-51
2023/01/27 09:22:40;;;;;;;885.67;182.57;;;3.60;99.90;;;;;;5050708;28;20226;-52
2023/01/27 09:25:12;;;;;;;1963.23;484.00;;;3.60;99.90;;;;;;5050117;28;20211;-51
2023/01/27 09:27:40;;;;;;;592.27;132.07;;;3.70;99.90;;;;;;5050807;28;20203;-52
2023/01/27 09:30:09;;;;;;;1870.87;370.97;;;3.80;99.90;;;;;;5050848;28;20297;-52
2023/01/27 09:32:37;;;;;;;519.67;128.20;;;3.80;99.90;;;;;;5050278;28;20318;-50
2023/01/27 09:35:06;;;;;;;1999.90;453.23;;;3.80;99.90;;;;;;5043631;28;20298;-51
2023/01/27 09:37:39;;;;;;;1978.97;327.00;;;3.90;99.90;;;;;;5050045;28;20232;-52
2023/01/27 09:40:19;;;;;;;1134.67;201.67;;;4.00;99.90;;;;;;5036815;28;20206;-52
2023/01/27 09:43:06;;;;;;;1999.90;815.00;;;4.00;99.90;;;;;;5042216;28;20535;-52
2023/01/27 09:45:49;;;;;;;1521.63;234.73;;;3.90;99.90;;;;;;5050228;28;20343;-51
2023/01/27 09:48:50;;;;;;;1999.90;665.20;;;4.10;99.90;;;;;;5050051;28;20255;-52
2023/01/27 09:51:26;;;;;;;1999.90;485.10;;;4.20;99.90;;;;;;5045342;28;20232;-51
2023/01/27 09:54:24;;;;;;;268.50;85.70;;;4.10;99.90;;;;;;5049661;28;20226;-52
2023/01/27 09:57:03;;;;;;;1999.90;603.77;;;4.10;99.90;;;;;;5048080;28;20603;-52
2023/01/27 09:59:47;;;;;;;1999.90;914.17;;;4.20;99.90;;;;;;5042090;28;20327;-52
2023/01/27 10:02:30;;;;;;;1888.40;450.03;;;4.20;99.90;;;;;;5036191;28;20327;-51
2023/01/27 10:05:23;;;;;;;1899.47;436.10;;;4.10;99.90;;;;;;5050093;28;20402;-52
2023/01/27 10:08:05;;;;;;;1446.63;254.30;;;4.20;99.90;;;;;;5049933;28;20291;-51
2023/01/27 10:10:46;;;;;;;1999.90;539.53;;;4.20;99.90;;;;;;5049425;28;20229;-52
2023/01/27 10:13:25;;;;;;;777.07;149.57;;;4.10;99.90;;;;;;5049464;28;20300;-52
2023/01/27 10:16:07;;;;;;;971.00;164.60;;;4.20;99.90;;;;;;5049953;28;20209;-52
2023/01/27 10:19:00;;;;;;;1999.90;813.13;;;4.20;99.90;;;;;;5049697;28;20220;-51
2023/01/27 10:21:36;;;;;;;1979.77;355.57;;;4.30;99.90;;;;;;5046692;28;20271;-52
2023/01/27 10:24:13;;;;;;;1999.90;556.27;;;4.40;99.90;;;;;;5049238;28;20307;-53
2023/01/27 10:26:45;;;;;;;1999.90;749.97;;;4.30;99.90;;;;;;5049241;28;20204;-52
2023/01/27 10:29:20;;;;;;;1999.90;581.60;;;4.30;99.90;;;;;;5049389;28;20673;-51
2023/01/27 10:31:55;;;;;;;1999.90;491.73;;;4.40;99.90;;;;;;5036467;28;20233;-51
2023/01/27 10:34:28;;;;;;;102.23;58.47;;;4.40;99.90;;;;;;5048078;28;20740;-51
2023/01/27 10:37:10;;;;;;;1999.90;708.77;;;4.40;99.90;;;;;;5048849;28;20205;-52
2023/01/27 10:39:45;;;;;;;1999.90;532.50;;;4.40;99.90;;;;;;5049336;28;20208;-52
2023/01/27 10:42:24;;;;;;;1450.73;227.30;;;4.30;99.90;;;;;;5049015;28;20221;-51
2023/01/27 10:45:11;;;;;;;1999.90;637.87;;;4.30;99.90;;;;;;5045579;28;20629;-50
2023/01/27 10:47:51;;;;;;;1702.87;306.97;;;4.20;99.90;;;;;;5048790;28;20744;-52
2023/01/27 10:50:23;;;;;;;1999.90;423.67;;;4.30;99.90;;;;;;5048478;28;20244;-51
2023/01/27 10:52:59;;;;;;;762.20;187.77;;;4.30;99.90;;;;;;5035527;28;20241;-52
2023/01/27 10:55:36;;;;;;;1999.90;606.07;;;4.20;99.90;;;;;;5049270;28;20630;-51
2023/01/27 10:58:10;;;;;;;1026.27;202.70;;;4.20;99.90;;;;;;5048861;28;20229;-51
2023/01/27 11:00:44;;;;;;;1999.90;335.13;;;4.30;99.90;;;;;;5049065;28;20300;-53
2023/01/27 11:03:39;;;;;;;1010.87;255.63;;;4.30;99.90;;;;;;5048728;28;20209;-51
2023/01/27 11:06:12;;;;;;;1999.90;770.30;;;4.20;99.90;;;;;;5048884;28;20221;-51
2023/01/27 11:08:42;;;;;;;1225.83;288.77;;;4.00;99.90;;;;;;5049047;28;20224;-51
2023/01/27 11:14:03;;;;;;;204.33;68.83;;;4.10;99.90;;;;;;5048831;28;20207;-51
2023/01/27 11:16:36;;;;;;;1255.30;251.20;;;4.20;99.90;;;;;;5044948;28;20617;-51
2023/01/27 11:19:15;;;;;;;1999.90;492.10;;;4.30;99.90;;;;;;5048543;28;20315;-51
2023/01/27 11:21:43;;;;;;;1999.90;346.43;;;4.20;99.90;;;;;;5048576;28;20320;-53
2023/01/27 11:24:24;;;;;;;1999.90;662.63;;;4.20;99.90;;;;;;5039162;28;20209;-52
2023/01/27 11:27:00;;;;;;;1999.90;950.73;;;4.20;99.90;;;;;;5045660;28;20205;-52
2023/01/27 11:29:35;;;;;;;790.80;217.20;;;4.40;99.90;;;;;;5048530;28;20615;-50
2023/01/27 11:32:16;;;;;;;1984.30;312.03;;;4.40;99.90;;;;;;5047658;28;20231;-50
2023/01/27 11:34:52;;;;;;;1999.90;999.10;;;4.20;99.90;;;;;;5046698;28;20298;-51
2023/01/27 11:37:24;;;;;;;1999.90;767.53;;;4.50;99.90;;;;;;5047511;28;20297;-51
2023/01/27 11:39:52;;;;;;;1768.67;292.87;;;4.40;99.90;;;;;;5046906;28;20239;-50
2023/01/27 11:42:20;;;;;;;1999.90;703.77;;;4.30;99.90;;;;;;5047293;28;20318;-52
2023/01/27 11:44:52;;;;;;;1450.17;259.87;;;4.30;99.90;;;;;;5042798;28;20783;-52
2023/01/27 11:47:24;;;;;;;1999.90;543.03;;;4.40;99.90;;;;;;5047601;28;20291;-52
2023/01/27 11:49:53;;;;;;;1984.67;339.93;;;4.40;99.90;;;;;;5048067;28;20224;-51
2023/01/27 11:52:25;;;;;;;1999.90;636.10;;;4.40;99.90;;;;;;5048943;28;20419;-52
2023/01/27 11:54:59;;;;;;;954.90;187.50;;;4.60;99.90;;;;;;5052740;28;20229;-51
2023/01/27 11:57:28;;;;;;;1999.90;370.17;;;4.50;99.90;;;;;;5052196;28;20236;-51
2023/01/27 12:00:00;;;;;;;1999.90;592.67;;;4.60;99.90;;;;;;5052310;28;20286;-52
2023/01/27 12:02:36;;;;;;;421.57;88.53;;;4.80;99.90;;;;;;5051152;28;20320;-52
2023/01/27 12:05:08;;;;;;;1395.93;320.13;;;4.80;99.90;;;;;;5052048;28;20685;-51
2023/01/27 12:07:46;;;;;;;1999.90;831.67;;;4.90;99.90;;;;;;5051345;28;20320;-51
2023/01/27 12:10:28;;;;;;;1180.67;230.80;;;4.70;99.90;;;;;;5051718;28;20301;-51
2023/01/27 12:12:57;;;;;;;1563.00;244.00;;;4.70;99.90;;;;;;5046007;28;20227;-51
2023/01/27 12:15:27;;;;;;;1896.43;390.40;;;4.70;99.90;;;;;;5052099;28;20259;-51
2023/01/27 12:18:00;;;;;;;700.27;151.93;;;4.70;99.90;;;;;;5052941;28;20687;-51
2023/01/27 12:20:38;;;;;;;1243.60;199.13;;;4.90;99.90;;;;;;5051556;28;20580;-51
2023/01/27 12:23:21;;;;;;;1999.90;755.40;;;4.70;99.90;;;;;;5040541;28;20285;-50
2023/01/27 12:25:54;;;;;;;91.70;53.30;;;4.70;99.90;;;;;;5051616;28;20210;-52
2023/01/27 12:28:28;;;;;;;159.07;79.53;;;4.80;99.90;;;;;;5052067;28;20234;-51
2023/01/27 12:31:03;;;;;;;1999.90;688.67;;;4.80;99.90;;;;;;5051611;28;20681;-51
2023/01/27 12:33:33;;;;;;;1999.90;566.60;;;4.80;99.90;;;;;;5051385;28;20236;-52
2023/01/27 12:36:10;;;;;;;1999.90;368.33;;;4.60;99.90;;;;;;5051731;28;20232;-52
2023/01/27 12:38:52;;;;;;;1999.90;520.83;;;4.60;99.90;;;;;;5050537;28;20230;-52
2023/01/27 12:41:23;;;;;;;1999.90;645.70;;;4.50;99.90;;;;;;5061526;28;20292;-53
2023/01/27 12:43:53;;;;;;;1999.90;999.90;;;4.60;99.90;;;;;;5050033;28;20672;-52
2023/01/27 12:46:24;;;;;;;760.10;143.43;;;4.70;99.90;;;;;;5046133;28;20238;-53
2023/01/27 12:49:01;;;;;;;1999.90;644.90;;;4.60;99.90;;;;;;5048867;28;20281;-50
2023/01/27 12:51:39;;;;;;;1999.90;522.30;;;4.50;99.90;;;;;;5050080;28;20294;-51
2023/01/27 12:54:21;;;;;;;1999.90;999.90;;;4.50;99.90;;;;;;5047663;28;20437;-51
2023/01/27 12:56:50;;;;;;;1989.60;436.20;;;4.60;99.90;;;;;;5048336;28;20207;-52
2023/01/27 12:59:20;;;;;;;1999.90;749.33;;;4.50;99.90;;;;;;5050251;28;20225;-52
2023/01/27 13:02:00;;;;;;;1724.83;305.00;;;4.50;99.90;;;;;;5047990;28;20346;-53
2023/01/27 13:04:30;;;;;;;1999.90;495.87;;;4.40;99.90;;;;;;5050118;28;20294;-52
2023/01/27 13:07:06;;;;;;;1999.90;655.50;;;4.40;99.90;;;;;;5037908;28;20299;-51
2023/01/27 13:09:37;;;;;;;1503.87;248.77;;;4.30;99.90;;;;;;5050476;28;20243;-52
2023/01/27 13:12:16;;;;;;;1035.73;193.43;;;4.40;99.90;;;;;;5037189;28;20749;-52